Terminal Aerodrome Forecast
Issued by NWS Upton, NY

Home | Current Version | Previous Version | Text Only | Print | Product List | Glossary On
Versions: 1 2 3 4 5 6 7 8 9 10 11 12 13 14 15 16 17 18 19 20 21 22 23 24 25 26
000
FTUS41 KOKX 272327
TAFISP
TAF
KISP 272327Z 2800/2824 20009KT P6SM SCT050 SCT150
     FM280200 21005KT P6SM SCT050 SCT150
     FM280800 VRB05KT P6SM BKN050
     FM281500 21006KT P6SM SCT050 SCT150
     FM281800 20009KT P6SM SCT050 SCT150=

USA.gov is the U.S. government's official web portal to all federal, state and local government web resources and services.